Time,TemperatureF,DewpointF,PressureIn,WindDirection,WindDirectionDegrees,WindSpeedMPH,WindSpeedGustMPH,Humidity,HourlyPrecipIn,Conditions,Clouds,dailyrainin,SoftwareType,DateUTC
2013-11-15 00:00:00,64.7,56.6,30.11,NE,54,0.0,2.0,75,0.00,,FEW080,0.00,VWS V14.01,2013-11-15 05:00:00,
2013-11-15 00:01:00,64.7,57.0,30.11,NE,54,0.0,0.0,76,0.00,,CLR,0.00,VWS V14.01,2013-11-15 05:01:00,
2013-11-15 00:02:00,64.7,57.0,30.11,NE,54,0.0,0.0,76,0.00,,CLR,0.00,VWS V14.01,2013-11-15 05:02:00,
2013-11-15 00:07:00,64.7,57.0,30.11,NE,44,0.0,5.0,76,0.00,,CLR,0.00,VWS V14.01,2013-11-15 05:07:00,
2013-11-15 00:12:00,64.5,56.8,30.11,NE,44,0.0,5.0,76,0.00,,CLR,0.00,VWS V14.01,2013-11-15 05:12:00,
2013-11-15 00:17:00,64.5,56.8,30.10,NE,44,0.0,5.0,76,0.00,,CLR,0.00,VWS V14.01,2013-11-15 05:17:00,
2013-11-15 00:22:00,64.5,56.8,30.10,NE,42,0.0,5.0,76,0.00,,CLR,0.00,VWS V14.01,2013-11-15 05:22:00,
2013-11-15 00:27:00,64.3,57.0,30.10,NE,42,0.0,5.0,77,0.00,,CLR,0.00,VWS V14.01,2013-11-15 05:27:00,
2013-11-15 00:30:00,64.3,56.9,30.10,NE,42,0.0,5.0,77,0.00,,FEW080,0.00,VWS V14.01,2013-11-15 05:30:00,
2013-11-15 00:32:00,64.3,57.0,30.10,NE,37,0.0,3.0,77,0.00,,CLR,0.00,VWS V14.01,2013-11-15 05:32:00,
2013-11-15 00:37:00,64.3,57.0,30.10,NE,41,0.0,3.0,77,0.00,,CLR,0.00,VWS V14.01,2013-11-15 05:37:00,
2013-11-15 00:42:00,64.3,57.0,30.09,NE,41,0.0,3.0,77,0.00,,CLR,0.00,VWS V14.01,2013-11-15 05:42:00,
2013-11-15 00:47:00,64.3,57.0,30.09,NE,41,0.0,3.0,77,0.00,,CLR,0.00,VWS V14.01,2013-11-15 05:47:00,
2013-11-15 00:52:00,64.3,57.0,30.09,NE,41,0.0,3.0,77,0.00,,CLR,0.00,VWS V14.01,2013-11-15 05:52:00,
2013-11-15 00:57:00,64.3,57.0,30.09,NE,41,0.0,3.0,77,0.00,,CLR,0.00,VWS V14.01,2013-11-15 05:57:00,
2013-11-15 01:00:00,64.3,56.9,30.09,NE,41,0.0,3.0,77,0.00,,OVC095,0.00,VWS V15.00,2013-11-15 06:00:00,
2013-11-15 01:02:00,64.3,57.0,30.09,NE,41,1.0,1.0,77,0.00,,CLR,0.00,VWS V14.01,2013-11-15 06:02:00,
2013-11-15 01:07:00,64.3,57.0,30.09,NE,41,0.0,2.0,77,0.00,,CLR,0.00,VWS V14.01,2013-11-15 06:07:00,
2013-11-15 01:12:00,64.3,57.0,30.09,NE,41,0.0,2.0,77,0.00,,CLR,0.00,VWS V14.01,2013-11-15 06:12:00,
2013-11-15 01:17:00,64.3,57.0,30.09,NE,41,0.0,2.0,77,0.00,,CLR,0.00,VWS V14.01,2013-11-15 06:17:00,
2013-11-15 01:22:00,64.3,57.0,30.09,NE,41,0.0,2.0,77,0.00,,CLR,0.00,VWS V14.01,2013-11-15 06:22:00,
2013-11-15 01:27:00,64.3,57.0,30.08,NE,41,0.0,2.0,77,0.00,,CLR,0.00,VWS V14.01,2013-11-15 06:27:00,
2013-11-15 01:30:00,64.3,56.9,30.08,NE,41,0.0,2.0,77,0.00,,OVC095,0.00,VWS V15.00,2013-11-15 06:30:00,
2013-11-15 01:33:00,64.3,57.0,30.08,NE,41,0.0,0.0,77,0.00,,CLR,0.00,VWS V14.01,2013-11-15 06:33:00,
2013-11-15 01:38:00,64.3,57.3,30.08,NE,42,0.0,1.0,78,0.00,,CLR,0.00,VWS V14.01,2013-11-15 06:38:00,
2013-11-15 01:43:00,64.3,57.3,30.08,NE,42,0.0,1.0,78,0.00,,CLR,0.00,VWS V14.01,2013-11-15 06:43:00,
2013-11-15 01:48:00,64.2,57.2,30.08,NE,42,0.0,1.0,78,0.00,,CLR,0.00,VWS V14.01,2013-11-15 06:48:00,
2013-11-15 01:53:00,64.2,57.2,30.08,NE,41,0.0,2.0,78,0.00,,CLR,0.00,VWS V14.01,2013-11-15 06:53:00,
2013-11-15 01:58:00,64.0,57.0,30.07,NE,41,0.0,2.0,78,0.00,,CLR,0.00,VWS V14.01,2013-11-15 06:58:00,
2013-11-15 02:00:00,64.0,57.0,30.07,NE,41,2.0,2.0,78,0.00,,FEW080,0.00,VWS V14.01,2013-11-15 07:00:00,
2013-11-15 02:03:00,64.0,57.0,30.07,NE,40,0.0,2.0,78,0.00,,CLR,0.00,VWS V14.01,2013-11-15 07:03:00,
2013-11-15 02:08:00,64.0,57.0,30.07,NE,40,0.0,2.0,78,0.00,,CLR,0.00,VWS V14.01,2013-11-15 07:08:00,
2013-11-15 02:13:00,64.0,57.0,30.06,NE,40,0.0,2.0,78,0.00,,CLR,0.00,VWS V14.01,2013-11-15 07:13:00,
2013-11-15 02:18:00,64.0,57.0,30.06,NE,41,0.0,3.0,78,0.00,,CLR,0.00,VWS V14.01,2013-11-15 07:18:00,
2013-11-15 02:23:00,63.9,56.9,30.06,NE,41,0.0,3.0,78,0.00,,CLR,0.00,VWS V14.01,2013-11-15 07:23:00,
2013-11-15 02:28:00,63.9,56.9,30.06,NE,41,0.0,3.0,78,0.00,,CLR,0.00,VWS V14.01,2013-11-15 07:28:00,
2013-11-15 02:30:00,63.9,56.9,30.06,NE,41,0.0,3.0,78,0.00,,FEW080,0.00,VWS V14.01,2013-11-15 07:30:00,
2013-11-15 02:33:00,63.9,56.9,30.06,NE,41,0.0,0.0,78,0.00,,CLR,0.00,VWS V14.01,2013-11-15 07:33:00,
2013-11-15 02:38:00,64.0,57.0,30.06,NE,41,0.0,0.0,78,0.00,,CLR,0.00,VWS V14.01,2013-11-15 07:38:00,
2013-11-15 02:43:00,64.0,57.0,30.06,NE,41,0.0,0.0,78,0.00,,CLR,0.00,VWS V14.01,2013-11-15 07:43:00,
2013-11-15 02:48:00,64.0,57.0,30.06,NE,41,0.0,0.0,78,0.00,,CLR,0.00,VWS V14.01,2013-11-15 07:48:00,
2013-11-15 02:53:00,64.0,57.4,30.06,NE,41,0.0,0.0,79,0.00,,CLR,0.00,VWS V14.01,2013-11-15 07:53:00,
2013-11-15 02:58:00,64.0,57.4,30.07,NE,41,0.0,0.0,79,0.00,,CLR,0.00,VWS V14.01,2013-11-15 07:58:00,
2013-11-15 03:00:00,64.0,57.4,30.07,NE,41,0.0,0.0,79,0.00,,FEW080,0.00,VWS V14.01,2013-11-15 08:00:00,
2013-11-15 03:03:00,64.0,57.4,30.07,NE,41,0.0,0.0,79,0.00,,CLR,0.00,VWS V14.01,2013-11-15 08:03:00,
2013-11-15 03:08:00,64.0,57.4,30.07,NE,41,0.0,0.0,79,0.00,,CLR,0.00,VWS V14.01,2013-11-15 08:08:00,
2013-11-15 03:13:00,64.0,57.4,30.06,NE,41,0.0,0.0,79,0.00,,CLR,0.00,VWS V14.01,2013-11-15 08:13:00,
2013-11-15 03:18:00,64.0,57.7,30.06,NE,40,0.0,0.0,80,0.00,,CLR,0.00,VWS V14.01,2013-11-15 08:18:00,
2013-11-15 03:23:00,64.0,57.7,30.06,NE,40,0.0,0.0,80,0.00,,CLR,0.00,VWS V14.01,2013-11-15 08:23:00,
2013-11-15 03:28:00,64.0,57.7,30.06,NE,40,0.0,0.0,80,0.00,,CLR,0.00,VWS V14.01,2013-11-15 08:28:00,
2013-11-15 03:30:00,64.0,57.7,30.06,NE,40,0.0,0.0,80,0.00,,OVC095,0.00,VWS V15.00,2013-11-15 08:30:00,
2013-11-15 03:33:00,63.9,57.6,30.06,NE,40,0.0,0.0,80,0.00,,CLR,0.00,VWS V14.01,2013-11-15 08:33:00,
2013-11-15 03:38:00,63.9,57.6,30.06,NE,40,0.0,3.0,80,0.00,,CLR,0.00,VWS V14.01,2013-11-15 08:38:00,
2013-11-15 03:43:00,63.9,57.6,30.06,NE,40,0.0,3.0,80,0.00,,CLR,0.00,VWS V14.01,2013-11-15 08:43:00,
2013-11-15 03:48:00,63.9,57.6,30.06,NE,40,0.0,3.0,80,0.00,,CLR,0.00,VWS V14.01,2013-11-15 08:48:00,
2013-11-15 03:53:00,63.7,57.4,30.06,NE,40,0.0,3.0,80,0.00,,CLR,0.00,VWS V14.01,2013-11-15 08:53:00,
2013-11-15 03:58:00,63.7,57.4,30.06,NE,40,0.0,3.0,80,0.00,,CLR,0.00,VWS V14.01,2013-11-15 08:58:00,
2013-11-15 04:00:00,63.7,57.4,30.06,NE,40,0.0,3.0,80,0.00,,FEW080,0.00,VWS V14.01,2013-11-15 09:00:00,
2013-11-15 04:03:00,63.7,57.4,30.06,NE,40,0.0,0.0,80,0.00,,CLR,0.00,VWS V14.01,2013-11-15 09:03:00,
2013-11-15 04:08:00,63.5,57.2,30.06,NE,40,0.0,0.0,80,0.00,,CLR,0.00,VWS V14.01,2013-11-15 09:08:00,
2013-11-15 04:13:00,63.5,57.2,30.05,NE,40,0.0,0.0,80,0.00,,CLR,0.00,VWS V14.01,2013-11-15 09:13:00,
2013-11-15 04:18:00,63.5,57.2,30.05,NE,40,0.0,1.0,80,0.00,,CLR,0.00,VWS V14.01,2013-11-15 09:18:00,
2013-11-15 04:23:00,63.4,57.1,30.05,NE,40,0.0,1.0,80,0.00,,CLR,0.00,VWS V14.01,2013-11-15 09:23:00,
2013-11-15 04:28:00,63.4,57.1,30.06,NE,40,0.0,1.0,80,0.00,,CLR,0.00,VWS V14.01,2013-11-15 09:28:00,
2013-11-15 04:30:00,63.4,57.1,30.06,NE,40,0.0,1.0,80,0.00,,FEW080,0.00,VWS V14.01,2013-11-15 09:30:00,
2013-11-15 04:33:00,63.2,56.9,30.06,NE,40,0.0,0.0,80,0.00,,CLR,0.00,VWS V14.01,2013-11-15 09:33:00,
2013-11-15 04:38:00,63.2,56.9,30.06,NE,40,0.0,0.0,80,0.00,,CLR,0.00,VWS V14.01,2013-11-15 09:38:00,
2013-11-15 04:43:00,63.1,56.8,30.06,NE,40,0.0,0.0,80,0.00,,CLR,0.00,VWS V14.01,2013-11-15 09:43:00,
2013-11-15 04:48:00,63.1,56.8,30.06,NE,40,0.0,0.0,80,0.00,,CLR,0.00,VWS V14.01,2013-11-15 09:48:00,
2013-11-15 04:53:00,62.9,56.6,30.06,NE,40,0.0,1.0,80,0.00,,CLR,0.00,VWS V14.01,2013-11-15 09:53:00,
2013-11-15 04:58:00,62.9,56.6,30.05,NE,40,0.0,1.0,80,0.00,,CLR,0.00,VWS V14.01,2013-11-15 09:58:00,
2013-11-15 05:00:00,62.9,56.6,30.05,NE,40,0.0,1.0,80,0.00,,FEW080,0.00,VWS V14.01,2013-11-15 10:00:00,
2013-11-15 05:03:00,62.9,56.6,30.05,NE,40,0.0,0.0,80,0.00,,CLR,0.00,VWS V14.01,2013-11-15 10:03:00,
2013-11-15 05:08:00,62.9,56.6,30.05,NE,40,0.0,0.0,80,0.00,,CLR,0.00,VWS V14.01,2013-11-15 10:08:00,
2013-11-15 05:13:00,62.9,57.0,30.05,NE,40,0.0,1.0,81,0.00,,CLR,0.00,VWS V14.01,2013-11-15 10:13:00,
2013-11-15 05:18:00,62.9,57.0,30.05,NE,40,0.0,1.0,81,0.00,,CLR,0.00,VWS V14.01,2013-11-15 10:18:00,
2013-11-15 05:23:00,62.9,57.0,30.05,NE,40,0.0,1.0,81,0.00,,CLR,0.00,VWS V14.01,2013-11-15 10:23:00,
2013-11-15 05:28:00,62.9,57.0,30.06,NE,40,0.0,1.0,81,0.00,,CLR,0.00,VWS V14.01,2013-11-15 10:28:00,
2013-11-15 05:30:00,62.9,57.0,30.06,NE,40,0.0,1.0,81,0.00,,FEW080,0.00,VWS V14.01,2013-11-15 10:30:00,
2013-11-15 05:33:00,62.9,57.0,30.06,NE,40,0.0,0.0,81,0.00,,CLR,0.00,VWS V14.01,2013-11-15 10:33:00,
2013-11-15 05:38:00,62.9,57.0,30.06,NE,40,0.0,0.0,81,0.00,,CLR,0.00,VWS V14.01,2013-11-15 10:38:00,
2013-11-15 05:43:00,62.9,57.0,30.06,NE,41,0.0,1.0,81,0.00,,CLR,0.00,VWS V14.01,2013-11-15 10:43:00,
2013-11-15 05:48:00,62.9,57.3,30.06,NE,41,0.0,1.0,82,0.00,,CLR,0.00,VWS V14.01,2013-11-15 10:48:00,
2013-11-15 05:53:00,63.1,57.5,30.06,NE,41,0.0,1.0,82,0.00,,CLR,0.00,VWS V14.01,2013-11-15 10:53:00,
2013-11-15 05:58:00,63.1,57.5,30.06,NE,41,0.0,1.0,82,0.00,,CLR,0.00,VWS V14.01,2013-11-15 10:58:00,
2013-11-15 06:00:00,63.1,57.5,30.06,NE,41,0.0,1.0,82,0.00,,FEW080,0.00,VWS V14.01,2013-11-15 11:00:00,
2013-11-15 06:03:00,63.1,57.5,30.06,NE,41,0.0,0.0,82,0.00,,CLR,0.00,VWS V14.01,2013-11-15 11:03:00,
2013-11-15 06:08:00,63.1,57.5,30.06,NE,41,0.0,1.0,82,0.00,,CLR,0.00,VWS V14.01,2013-11-15 11:08:00,
2013-11-15 06:13:00,63.1,57.5,30.07,NE,41,0.0,1.0,82,0.00,,CLR,0.00,VWS V14.01,2013-11-15 11:13:00,
2013-11-15 06:18:00,63.2,57.6,30.07,NE,41,0.0,1.0,82,0.00,,CLR,0.00,VWS V14.01,2013-11-15 11:18:00,
2013-11-15 06:23:00,63.2,57.6,30.07,NE,41,0.0,1.0,82,0.00,,CLR,0.00,VWS V14.01,2013-11-15 11:23:00,
2013-11-15 06:28:00,63.2,57.6,30.08,NE,41,0.0,1.0,82,0.00,,CLR,0.00,VWS V14.01,2013-11-15 11:28:00,
2013-11-15 06:30:00,63.2,57.6,30.08,NE,41,0.0,1.0,82,0.00,,OVC095,0.00,VWS V15.00,2013-11-15 11:30:00,
2013-11-15 06:33:00,63.1,57.5,30.08,NE,41,0.0,0.0,82,0.00,,CLR,0.00,VWS V14.01,2013-11-15 11:33:00,
2013-11-15 06:38:00,63.1,57.5,30.08,NE,41,0.0,0.0,82,0.00,,CLR,0.00,VWS V14.01,2013-11-15 11:38:00,
2013-11-15 06:43:00,63.1,57.5,30.09,NE,41,0.0,0.0,82,0.00,,CLR,0.00,VWS V14.01,2013-11-15 11:43:00,
2013-11-15 06:48:00,63.1,57.5,30.09,NE,41,0.0,0.0,82,0.00,,CLR,0.00,VWS V14.01,2013-11-15 11:48:00,
2013-11-15 06:53:00,63.1,57.9,30.09,NE,41,0.0,0.0,83,0.00,,CLR,0.00,VWS V14.01,2013-11-15 11:53:00,
2013-11-15 06:58:00,63.1,57.9,30.10,NE,41,0.0,0.0,83,0.00,,CLR,0.00,VWS V14.01,2013-11-15 11:58:00,
2013-11-15 07:00:00,63.1,57.9,30.10,NE,41,0.0,0.0,83,0.00,,OVC095,0.00,VWS V15.00,2013-11-15 12:00:00,
2013-11-15 07:03:00,63.1,57.9,30.10,NE,41,0.0,0.0,83,0.00,,CLR,0.00,VWS V14.01,2013-11-15 12:03:00,
2013-11-15 07:08:00,63.1,57.9,30.10,NE,41,0.0,0.0,83,0.00,,CLR,0.00,VWS V14.01,2013-11-15 12:08:00,
2013-11-15 07:12:00,63.1,57.9,30.10,NE,41,0.0,0.0,83,0.00,,CLR,0.00,VWS V14.01,2013-11-15 12:12:00,
2013-11-15 07:18:00,63.1,57.9,30.10,NE,41,0.0,0.0,83,0.00,,CLR,0.00,VWS V14.01,2013-11-15 12:18:00,
2013-11-15 07:23:00,63.1,57.9,30.10,NE,41,0.0,0.0,83,0.00,,CLR,0.00,VWS V14.01,2013-11-15 12:23:00,
2013-11-15 07:28:00,63.2,58.0,30.11,NE,41,0.0,0.0,83,0.00,,CLR,0.00,VWS V14.01,2013-11-15 12:28:00,
2013-11-15 07:30:00,63.7,58.8,30.11,NE,41,0.0,3.0,84,0.00,,CLR,0.00,VWS V15.00,2013-11-15 12:30:00,
2013-11-15 07:33:00,63.2,58.3,30.11,NE,41,0.0,0.0,84,0.00,,CLR,0.00,VWS V14.01,2013-11-15 12:33:00,
2013-11-15 07:38:00,63.2,58.3,30.11,NE,41,0.0,0.0,84,0.00,,CLR,0.00,VWS V14.01,2013-11-15 12:38:00,
2013-11-15 07:43:00,63.2,58.3,30.11,NE,41,0.0,0.0,84,0.00,,CLR,0.00,VWS V14.01,2013-11-15 12:43:00,
2013-11-15 07:48:00,63.2,58.3,30.11,NE,41,0.0,0.0,84,0.00,,CLR,0.00,VWS V14.01,2013-11-15 12:48:00,
2013-11-15 07:53:00,63.4,58.5,30.11,NE,41,0.0,0.0,84,0.00,,CLR,0.00,VWS V14.01,2013-11-15 12:53:00,
2013-11-15 07:58:00,63.4,58.5,30.11,NE,41,0.0,0.0,84,0.00,,CLR,0.00,VWS V14.01,2013-11-15 12:58:00,
2013-11-15 08:00:00,63.4,58.5,30.11,NE,41,0.0,0.0,84,0.00,,FEW080,0.00,VWS V14.01,2013-11-15 13:00:00,
2013-11-15 08:03:00,63.4,58.5,30.11,NE,41,0.0,0.0,84,0.00,,CLR,0.00,VWS V14.01,2013-11-15 13:03:00,
2013-11-15 08:08:00,63.4,58.5,30.11,NE,41,0.0,0.0,84,0.00,,CLR,0.00,VWS V14.01,2013-11-15 13:08:00,
2013-11-15 08:13:00,63.5,58.6,30.11,NE,41,0.0,0.0,84,0.00,,CLR,0.00,VWS V14.01,2013-11-15 13:13:00,
2013-11-15 08:18:00,63.5,58.2,30.11,NE,41,0.0,3.0,83,0.00,,CLR,0.00,VWS V14.01,2013-11-15 13:18:00,
2013-11-15 08:23:00,63.5,58.6,30.11,NE,41,0.0,3.0,84,0.00,,CLR,0.00,VWS V14.01,2013-11-15 13:23:00,
2013-11-15 08:28:00,63.7,58.8,30.11,NE,41,0.0,3.0,84,0.00,,CLR,0.00,VWS V14.01,2013-11-15 13:28:00,
2013-11-15 08:30:00,63.7,58.8,30.11,NE,41,0.0,3.0,84,0.00,,FEW080,0.00,VWS V14.01,2013-11-15 13:30:00,
2013-11-15 08:33:00,63.7,58.8,30.11,NE,40,0.0,1.0,84,0.00,,CLR,0.00,VWS V14.01,2013-11-15 13:33:00,
2013-11-15 08:38:00,63.9,59.0,30.11,NE,40,0.0,1.0,84,0.00,,CLR,0.00,VWS V14.01,2013-11-15 13:38:00,
2013-11-15 08:43:00,63.9,59.0,30.11,NE,48,3.0,3.0,84,0.00,,CLR,0.00,VWS V14.01,2013-11-15 13:43:00,
2013-11-15 08:48:00,64.0,59.1,30.11,NE,48,0.0,3.0,84,0.00,,CLR,0.00,VWS V14.01,2013-11-15 13:48:00,
2013-11-15 08:53:00,64.2,58.9,30.11,NE,48,0.0,3.0,83,0.00,,CLR,0.00,VWS V14.01,2013-11-15 13:53:00,
2013-11-15 08:58:00,64.5,58.9,30.10,NE,48,0.0,3.0,82,0.00,,CLR,0.00,VWS V14.01,2013-11-15 13:58:00,
2013-11-15 09:00:00,64.5,58.9,30.10,NE,48,0.0,3.0,82,0.00,,FEW080,0.00,VWS V14.01,2013-11-15 14:00:00,
2013-11-15 09:03:00,64.8,59.2,30.10,NE,47,0.0,5.0,82,0.00,,FEW110,0.00,VWS V14.01,2013-11-15 14:03:00,
2013-11-15 09:08:00,65.2,59.2,30.10,NE,45,2.0,5.0,81,0.00,,FEW110,0.00,VWS V14.01,2013-11-15 14:08:00,
2013-11-15 09:13:00,65.5,59.5,30.10,NE,38,0.0,5.0,81,0.00,,FEW110,0.00,VWS V14.01,2013-11-15 14:13:00,
2013-11-15 09:18:00,66.3,60.0,30.10,NE,38,0.0,5.0,80,0.00,,FEW110,0.00,VWS V14.01,2013-11-15 14:18:00,
2013-11-15 09:23:00,66.9,60.5,30.10,ENE,61,0.0,5.0,80,0.00,,FEW110,0.00,VWS V14.01,2013-11-15 14:23:00,
2013-11-15 09:28:00,67.4,59.6,30.10,ENE,59,0.0,5.0,76,0.00,,FEW110,0.00,VWS V14.01,2013-11-15 14:28:00,
2013-11-15 09:30:00,67.4,60.0,30.10,NE,38,2.0,5.0,77,0.00,,FEW080,0.00,VWS V14.01,2013-11-15 14:30:00,
2013-11-15 09:33:00,67.8,60.0,30.10,NE,38,0.0,2.0,76,0.00,,FEW110,0.00,VWS V14.01,2013-11-15 14:33:00,
2013-11-15 09:38:00,67.9,59.7,30.10,NE,48,0.0,6.0,75,0.00,,FEW110,0.00,VWS V14.01,2013-11-15 14:38:00,
2013-11-15 09:43:00,68.1,59.9,30.10,NE,48,0.0,6.0,75,0.00,,FEW110,0.00,VWS V14.01,2013-11-15 14:43:00,
2013-11-15 09:48:00,68.3,60.1,30.10,NE,48,0.0,6.0,75,0.00,,FEW110,0.00,VWS V14.01,2013-11-15 14:48:00,
2013-11-15 09:53:00,68.3,59.7,30.10,NE,38,0.0,6.0,74,0.00,,FEW110,0.00,VWS V14.01,2013-11-15 14:53:00,
2013-11-15 09:58:00,68.3,59.7,30.11,NNE,30,0.0,6.0,74,0.00,,FEW110,0.00,VWS V14.01,2013-11-15 14:58:00,
2013-11-15 10:00:00,68.3,59.7,30.11,North,11,0.0,6.0,74,0.00,,FEW080,0.00,VWS V14.01,2013-11-15 15:00:00,
2013-11-15 10:03:00,68.3,59.7,30.11,NE,45,0.0,5.0,74,0.00,,OVC110,0.00,VWS V14.01,2013-11-15 15:03:00,
2013-11-15 10:08:00,68.4,60.2,30.11,NE,54,0.0,5.0,75,0.00,,OVC110,0.00,VWS V14.01,2013-11-15 15:08:00,
2013-11-15 10:13:00,68.6,60.4,30.11,NE,40,0.0,5.0,75,0.00,,OVC110,0.00,VWS V14.01,2013-11-15 15:13:00,
2013-11-15 10:18:00,68.6,60.0,30.11,ENE,59,0.0,5.0,74,0.00,,OVC110,0.00,VWS V14.01,2013-11-15 15:18:00,
2013-11-15 10:23:00,68.6,60.0,30.11,NE,44,0.0,5.0,74,0.00,,OVC110,0.00,VWS V14.01,2013-11-15 15:23:00,
2013-11-15 10:28:00,68.6,60.0,30.11,NE,45,0.0,5.0,74,0.00,,OVC110,0.00,VWS V14.01,2013-11-15 15:28:00,
2013-11-15 10:30:00,68.6,60.0,30.11,NE,45,0.0,5.0,74,0.00,,FEW080,0.00,VWS V14.01,2013-11-15 15:30:00,
2013-11-15 10:33:00,68.4,59.8,30.11,NE,52,0.0,7.0,74,0.00,,OVC110,0.00,VWS V14.01,2013-11-15 15:33:00,
2013-11-15 10:38:00,68.6,60.0,30.11,NE,56,0.0,7.0,74,0.00,,OVC110,0.00,VWS V14.01,2013-11-15 15:38:00,
2013-11-15 10:43:00,68.6,60.0,30.11,ENE,58,0.0,7.0,74,0.00,,OVC110,0.00,VWS V14.01,2013-11-15 15:43:00,
2013-11-15 10:48:00,68.6,60.4,30.11,NE,55,0.0,7.0,75,0.00,,OVC110,0.00,VWS V14.01,2013-11-15 15:48:00,
2013-11-15 10:53:00,68.8,60.6,30.11,NE,55,2.0,7.0,75,0.00,,OVC110,0.00,VWS V14.01,2013-11-15 15:53:00,
2013-11-15 10:58:00,68.8,60.6,30.11,NE,52,0.0,7.0,75,0.00,,OVC110,0.00,VWS V14.01,2013-11-15 15:58:00,
2013-11-15 11:00:00,68.8,60.6,30.11,NE,52,0.0,7.0,75,0.00,,FEW080,0.00,VWS V14.01,2013-11-15 16:00:00,
2013-11-15 11:03:00,68.9,61.0,30.11,NE,52,0.0,0.0,76,0.00,,FEW050,0.00,VWS V14.01,2013-11-15 16:03:00,
2013-11-15 11:08:00,69.1,61.2,30.11,NE,52,0.0,0.0,76,0.00,,FEW050,0.00,VWS V14.01,2013-11-15 16:08:00,
2013-11-15 11:13:00,69.1,61.2,30.11,NE,52,0.0,1.0,76,0.00,,FEW050,0.00,VWS V14.01,2013-11-15 16:13:00,
2013-11-15 11:18:00,69.3,61.0,30.11,NE,52,0.0,1.0,75,0.00,,FEW050,0.00,VWS V14.01,2013-11-15 16:18:00,
2013-11-15 11:23:00,69.1,60.8,30.11,NE,51,0.0,3.0,75,0.00,,FEW050,0.00,VWS V14.01,2013-11-15 16:23:00,
2013-11-15 11:28:00,69.3,61.0,30.10,ENE,68,0.0,5.0,75,0.00,,FEW050,0.00,VWS V14.01,2013-11-15 16:28:00,
2013-11-15 11:30:00,69.3,61.0,30.10,ENE,68,0.0,5.0,75,0.00,,OVC095,0.00,VWS V15.00,2013-11-15 16:30:00,
2013-11-15 11:33:00,69.4,61.1,30.10,ENE,64,0.0,2.0,75,0.00,,FEW050,0.00,VWS V14.01,2013-11-15 16:33:00,
2013-11-15 11:38:00,69.6,61.3,30.10,NE,38,0.0,5.0,75,0.00,,FEW050,0.00,VWS V14.01,2013-11-15 16:38:00,
2013-11-15 11:43:00,69.9,61.2,30.08,NNE,27,0.0,7.0,74,0.00,,FEW050,0.00,VWS V14.01,2013-11-15 16:43:00,
2013-11-15 11:48:00,70.1,61.0,30.08,NE,44,0.0,7.0,73,0.00,,FEW050,0.00,VWS V14.01,2013-11-15 16:48:00,
2013-11-15 11:53:00,70.4,61.7,30.08,NE,44,0.0,7.0,74,0.00,,FEW050,0.00,VWS V14.01,2013-11-15 16:53:00,
2013-11-15 11:58:00,70.6,61.5,30.07,NE,49,0.0,7.0,73,0.00,,FEW050,0.00,VWS V14.01,2013-11-15 16:58:00,
2013-11-15 12:00:00,70.6,61.5,30.07,NE,49,0.0,7.0,73,0.00,,FEW080,0.00,VWS V14.01,2013-11-15 17:00:00,
2013-11-15 12:03:00,70.6,61.5,30.07,NE,54,0.0,3.0,73,0.00,,FEW055,0.00,VWS V14.01,2013-11-15 17:03:00,
2013-11-15 12:08:00,70.8,61.3,30.07,NE,49,0.0,5.0,72,0.00,,FEW055,0.00,VWS V14.01,2013-11-15 17:08:00,
2013-11-15 12:13:00,70.9,61.4,30.06,NE,49,0.0,5.0,72,0.00,,FEW055,0.00,VWS V14.01,2013-11-15 17:13:00,
2013-11-15 12:18:00,70.8,61.3,30.06,NE,48,1.0,5.0,72,0.00,,FEW055,0.00,VWS V14.01,2013-11-15 17:18:00,
2013-11-15 12:23:00,70.8,61.3,30.06,ENE,62,0.0,5.0,72,0.00,,FEW055,0.00,VWS V14.01,2013-11-15 17:23:00,
2013-11-15 12:28:00,70.8,61.3,30.06,ENE,73,0.0,5.0,72,0.00,,FEW055,0.00,VWS V14.01,2013-11-15 17:28:00,
2013-11-15 12:30:00,70.8,61.3,30.06,ENE,69,1.0,5.0,72,0.00,,FEW080,0.00,VWS V14.01,2013-11-15 17:30:00,
2013-11-15 12:33:00,70.6,60.8,30.06,ENE,72,0.0,3.0,71,0.00,,FEW055,0.00,VWS V14.01,2013-11-15 17:33:00,
2013-11-15 12:38:00,70.6,61.1,30.06,NE,51,0.0,5.0,72,0.00,,FEW055,0.00,VWS V14.01,2013-11-15 17:38:00,
2013-11-15 12:43:00,70.4,61.0,30.04,NE,55,4.0,7.0,72,0.00,,FEW055,0.00,VWS V14.01,2013-11-15 17:43:00,
2013-11-15 12:48:00,70.4,61.3,30.04,NE,55,2.0,7.0,73,0.00,,FEW055,0.00,VWS V14.01,2013-11-15 17:48:00,
2013-11-15 12:53:00,70.4,61.3,30.04,NNE,13,0.0,10.0,73,0.00,,FEW055,0.00,VWS V14.01,2013-11-15 17:53:00,
2013-11-15 12:58:00,70.3,61.2,30.03,NE,44,0.0,10.0,73,0.00,,FEW055,0.00,VWS V14.01,2013-11-15 17:58:00,
2013-11-15 13:00:00,70.3,61.2,30.03,NE,45,0.0,10.0,73,0.00,,FEW080,0.00,VWS V14.01,2013-11-15 18:00:00,
2013-11-15 13:03:00,70.3,61.6,30.03,NE,56,0.0,3.0,74,0.00,,OVC120,0.00,VWS V14.01,2013-11-15 18:03:00,
2013-11-15 13:08:00,70.3,61.6,30.03,NE,56,0.0,3.0,74,0.00,,OVC120,0.00,VWS V14.01,2013-11-15 18:08:00,
2013-11-15 13:13:00,70.3,62.0,30.04,NE,56,0.0,3.0,75,0.00,,OVC120,0.00,VWS V14.01,2013-11-15 18:13:00,
2013-11-15 13:18:00,70.3,62.0,30.04,NE,56,0.0,3.0,75,0.00,,OVC120,0.00,VWS V14.01,2013-11-15 18:18:00,
2013-11-15 13:23:00,70.3,62.0,30.04,NE,52,0.0,10.0,75,0.00,,OVC120,0.00,VWS V14.01,2013-11-15 18:23:00,
2013-11-15 13:28:00,70.3,62.0,30.04,NE,37,0.0,10.0,75,0.00,,OVC120,0.00,VWS V14.01,2013-11-15 18:28:00,
2013-11-15 13:30:00,70.3,62.0,30.04,NE,37,0.0,10.0,75,0.00,,FEW080,0.00,VWS V14.01,2013-11-15 18:30:00,
2013-11-15 13:33:00,70.3,62.0,30.04,NE,37,0.0,2.0,75,0.00,,OVC120,0.00,VWS V14.01,2013-11-15 18:33:00,
2013-11-15 13:38:00,70.3,62.4,30.04,NE,37,0.0,2.0,76,0.00,,OVC120,0.00,VWS V14.01,2013-11-15 18:38:00,
2013-11-15 13:43:00,70.3,62.4,30.03,NE,48,0.0,5.0,76,0.00,,OVC120,0.00,VWS V14.01,2013-11-15 18:43:00,
2013-11-15 13:47:00,70.3,62.4,30.03,NE,55,0.0,5.0,76,0.00,,OVC120,0.00,VWS V14.01,2013-11-15 18:47:00,
2013-11-15 13:52:00,70.1,62.6,30.03,NE,35,0.0,7.0,77,0.00,,OVC120,0.00,VWS V14.01,2013-11-15 18:52:00,
2013-11-15 13:57:00,70.1,62.9,30.03,NE,35,1.0,7.0,78,0.00,,OVC120,0.00,VWS V14.01,2013-11-15 18:57:00,
2013-11-15 14:00:00,70.1,62.9,30.03,NE,35,0.0,7.0,78,0.00,,FEW080,0.00,VWS V14.01,2013-11-15 19:00:00,
2013-11-15 14:03:00,69.9,63.5,30.03,NE,37,0.0,2.0,80,0.00,,BKN110,0.00,VWS V14.01,2013-11-15 19:03:00,
2013-11-15 14:08:00,69.6,63.2,30.03,NE,35,0.0,3.0,80,0.00,,BKN110,0.00,VWS V14.01,2013-11-15 19:08:00,
2013-11-15 14:12:00,69.4,63.0,30.02,NE,34,0.0,4.0,80,0.00,,BKN110,0.00,VWS V14.01,2013-11-15 19:12:00,
2013-11-15 14:17:00,69.3,63.9,30.02,NE,34,0.0,4.0,83,0.00,,BKN110,0.00,VWS V14.01,2013-11-15 19:17:00,
2013-11-15 14:22:00,69.1,63.7,30.02,NE,34,0.0,4.0,83,0.01,,BKN110,0.01,VWS V14.01,2013-11-15 19:22:00,
2013-11-15 14:27:00,68.9,63.9,30.02,NE,34,0.0,4.0,84,0.01,,BKN110,0.01,VWS V14.01,2013-11-15 19:27:00,
2013-11-15 14:30:00,68.9,63.9,30.02,NE,34,0.0,4.0,84,0.01,,FEW080,0.01,VWS V14.01,2013-11-15 19:30:00,
2013-11-15 14:32:00,68.8,63.8,30.02,NE,34,0.0,0.0,84,0.01,,BKN110,0.01,VWS V14.01,2013-11-15 19:32:00,
2013-11-15 14:37:00,68.8,64.1,30.02,NE,34,0.0,5.0,85,0.01,,BKN110,0.01,VWS V14.01,2013-11-15 19:37:00,
2013-11-15 14:42:00,68.6,64.2,30.02,NE,34,0.0,5.0,86,0.01,,BKN110,0.01,VWS V14.01,2013-11-15 19:42:00,
2013-11-15 14:47:00,68.6,64.6,30.02,NE,34,0.0,5.0,87,0.01,,BKN110,0.01,VWS V14.01,2013-11-15 19:47:00,
2013-11-15 14:52:00,68.6,64.6,30.02,NE,35,0.0,5.0,87,0.02,,BKN110,0.02,VWS V14.01,2013-11-15 19:52:00,
2013-11-15 14:57:00,68.4,64.7,30.01,NE,35,0.0,5.0,88,0.02,,BKN110,0.02,VWS V14.01,2013-11-15 19:57:00,
2013-11-15 15:00:00,68.4,64.7,30.01,NNE,32,0.0,5.0,88,0.02,,FEW080,0.02,VWS V14.01,2013-11-15 20:00:00,
2013-11-15 15:02:00,68.3,64.6,30.01,NNE,31,0.0,3.0,88,0.02,,BKN110,0.02,VWS V14.01,2013-11-15 20:02:00,
2013-11-15 15:07:00,68.3,64.6,30.01,NE,34,0.0,3.0,88,0.02,,BKN110,0.02,VWS V14.01,2013-11-15 20:07:00,
2013-11-15 15:12:00,68.1,64.4,30.02,NE,34,0.0,3.0,88,0.02,,BKN110,0.02,VWS V14.01,2013-11-15 20:12:00,
2013-11-15 15:17:00,68.1,64.7,30.02,NE,34,0.0,3.0,89,0.02,,BKN110,0.02,VWS V14.01,2013-11-15 20:17:00,
2013-11-15 15:22:00,68.1,64.7,30.02,NE,34,0.0,3.0,89,0.02,,BKN110,0.02,VWS V14.01,2013-11-15 20:22:00,
2013-11-15 15:27:00,67.9,64.5,30.01,NE,34,0.0,3.0,89,0.02,,BKN110,0.02,VWS V14.01,2013-11-15 20:27:00,
2013-11-15 15:30:00,67.9,64.5,30.01,NE,34,0.0,3.0,89,0.02,,FEW080,0.02,VWS V14.01,2013-11-15 20:30:00,
2013-11-15 15:32:00,67.9,64.5,30.01,NE,34,0.0,1.0,89,0.01,,BKN110,0.02,VWS V14.01,2013-11-15 20:32:00,
2013-11-15 15:37:00,67.8,64.4,30.01,NE,34,0.0,2.0,89,0.01,,BKN110,0.02,VWS V14.01,2013-11-15 20:37:00,
2013-11-15 15:42:00,67.8,64.8,30.02,NE,34,0.0,2.0,90,0.01,,BKN110,0.02,VWS V14.01,2013-11-15 20:42:00,
2013-11-15 15:47:00,67.8,64.8,30.02,NE,34,0.0,2.0,90,0.01,,BKN110,0.02,VWS V14.01,2013-11-15 20:47:00,
2013-11-15 15:52:00,67.8,64.8,30.02,NE,35,0.0,2.0,90,0.01,,BKN110,0.02,VWS V14.01,2013-11-15 20:52:00,
2013-11-15 15:57:00,67.6,64.6,30.01,NE,35,0.0,3.0,90,0.01,,BKN110,0.02,VWS V14.01,2013-11-15 20:57:00,
2013-11-15 16:00:00,67.6,64.6,30.01,NE,35,0.0,3.0,90,0.01,,FEW080,0.02,VWS V14.01,2013-11-15 21:00:00,
2013-11-15 16:02:00,67.6,64.6,30.01,NE,35,0.0,2.0,90,0.00,,BKN110,0.02,VWS V14.01,2013-11-15 21:02:00,
2013-11-15 16:07:00,67.6,64.6,30.01,NE,35,1.0,3.0,90,0.00,,BKN110,0.02,VWS V14.01,2013-11-15 21:07:00,
2013-11-15 16:12:00,67.4,64.4,30.01,NE,35,0.0,3.0,90,0.00,,BKN110,0.02,VWS V14.01,2013-11-15 21:12:00,
2013-11-15 16:17:00,67.4,64.4,30.01,NE,38,0.0,3.0,90,0.00,,BKN110,0.02,VWS V14.01,2013-11-15 21:17:00,
2013-11-15 16:22:00,67.4,64.4,30.01,NE,37,0.0,3.0,90,0.00,,BKN110,0.02,VWS V14.01,2013-11-15 21:22:00,
2013-11-15 16:27:00,67.4,64.4,30.01,NNE,24,1.0,8.0,90,0.00,,BKN110,0.02,VWS V14.01,2013-11-15 21:27:00,
2013-11-15 16:30:00,67.4,64.4,29.99,NNE,24,0.0,8.0,90,0.00,,FEW080,0.02,VWS V14.01,2013-11-15 21:30:00,
2013-11-15 16:32:00,67.4,64.4,29.99,NNE,25,0.0,3.0,90,0.00,,BKN110,0.02,VWS V14.01,2013-11-15 21:32:00,
2013-11-15 16:37:00,67.4,64.4,29.99,NE,48,0.0,6.0,90,0.00,,BKN110,0.02,VWS V14.01,2013-11-15 21:37:00,
2013-11-15 16:42:00,67.4,64.4,29.99,NE,49,1.0,6.0,90,0.00,,BKN110,0.02,VWS V14.01,2013-11-15 21:42:00,
2013-11-15 16:47:00,67.4,64.4,29.99,NE,49,0.0,6.0,90,0.00,,BKN110,0.02,VWS V14.01,2013-11-15 21:47:00,
2013-11-15 16:52:00,67.4,64.4,29.99,NE,49,0.0,6.0,90,0.00,,BKN110,0.02,VWS V14.01,2013-11-15 21:52:00,
2013-11-15 16:57:00,67.4,64.4,29.99,NE,54,0.0,6.0,90,0.00,,BKN110,0.02,VWS V14.01,2013-11-15 21:57:00,
2013-11-15 17:00:00,67.4,64.4,29.99,NE,54,0.0,6.0,90,0.01,,FEW080,0.03,VWS V14.01,2013-11-15 22:00:00,
2013-11-15 17:02:00,67.4,64.4,29.99,NE,55,0.0,2.0,90,0.01,,BKN110,0.03,VWS V14.01,2013-11-15 22:02:00,
2013-11-15 17:07:00,67.6,64.6,29.99,NE,54,0.0,2.0,90,0.01,,BKN110,0.03,VWS V14.01,2013-11-15 22:07:00,
2013-11-15 17:12:00,67.6,64.6,29.99,NE,54,0.0,2.0,90,0.01,,BKN110,0.03,VWS V14.01,2013-11-15 22:12:00,
2013-11-15 17:17:00,67.6,64.6,29.99,NE,51,0.0,3.0,90,0.01,,BKN110,0.03,VWS V14.01,2013-11-15 22:17:00,
2013-11-15 17:22:00,67.6,64.2,29.99,NNE,21,0.0,6.0,89,0.01,,BKN110,0.03,VWS V14.01,2013-11-15 22:22:00,
2013-11-15 17:27:00,67.6,64.2,29.99,NE,34,0.0,6.0,89,0.01,,BKN110,0.03,VWS V14.01,2013-11-15 22:27:00,
2013-11-15 17:30:00,67.6,64.2,29.99,NE,45,0.0,6.0,89,0.01,,FEW080,0.03,VWS V14.01,2013-11-15 22:30:00,
2013-11-15 17:32:00,67.8,64.4,29.99,NE,45,0.0,0.0,89,0.01,,BKN110,0.03,VWS V14.01,2013-11-15 22:32:00,
2013-11-15 17:37:00,67.8,64.4,29.99,NE,49,0.0,2.0,89,0.01,,BKN110,0.03,VWS V14.01,2013-11-15 22:37:00,
2013-11-15 17:42:00,67.9,64.2,29.99,NE,49,0.0,2.0,88,0.01,,BKN110,0.03,VWS V14.01,2013-11-15 22:42:00,
2013-11-15 17:47:00,68.1,64.4,29.99,NE,40,0.0,8.0,88,0.01,,BKN110,0.03,VWS V14.01,2013-11-15 22:47:00,
2013-11-15 17:52:00,68.3,64.6,29.99,NE,56,0.0,8.0,88,0.01,,BKN110,0.03,VWS V14.01,2013-11-15 22:52:00,
2013-11-15 17:57:00,68.4,64.4,29.99,NE,55,0.0,8.0,87,0.01,,BKN110,0.03,VWS V14.01,2013-11-15 22:57:00,
2013-11-15 18:00:00,68.4,64.4,30.00,NE,55,0.0,8.0,87,0.01,,FEW080,0.03,VWS V14.01,2013-11-15 23:00:00,
2013-11-15 18:02:00,68.4,64.4,30.00,NE,54,0.0,2.0,87,0.00,,BKN110,0.03,VWS V14.01,2013-11-15 23:02:00,
2013-11-15 18:07:00,68.6,64.6,30.00,NE,49,0.0,3.0,87,0.00,,BKN110,0.03,VWS V14.01,2013-11-15 23:07:00,
2013-11-15 18:12:00,68.6,64.2,30.00,NE,49,0.0,3.0,86,0.00,,BKN110,0.03,VWS V14.01,2013-11-15 23:12:00,
2013-11-15 18:17:00,68.8,64.4,30.01,NE,49,0.0,3.0,86,0.00,,BKN110,0.03,VWS V14.01,2013-11-15 23:17:00,
2013-11-15 18:22:00,68.8,64.4,30.01,NE,49,0.0,3.0,86,0.00,,BKN110,0.03,VWS V14.01,2013-11-15 23:22:00,
2013-11-15 18:27:00,68.8,64.4,30.01,NE,49,0.0,3.0,86,0.00,,BKN110,0.03,VWS V14.01,2013-11-15 23:27:00,
2013-11-15 18:30:00,68.8,64.4,30.01,NE,49,0.0,3.0,86,0.00,,FEW080,0.03,VWS V14.01,2013-11-15 23:30:00,
2013-11-15 18:32:00,68.8,64.4,30.01,NE,49,0.0,0.0,86,0.00,,BKN110,0.03,VWS V14.01,2013-11-15 23:32:00,
2013-11-15 18:37:00,68.8,64.4,30.01,NE,49,0.0,1.0,86,0.00,,BKN110,0.03,VWS V14.01,2013-11-15 23:37:00,
2013-11-15 18:42:00,68.8,64.4,30.01,NE,49,0.0,1.0,86,0.00,,BKN110,0.03,VWS V14.01,2013-11-15 23:42:00,
2013-11-15 18:47:00,68.9,64.2,30.02,NE,49,0.0,2.0,85,0.00,,BKN110,0.03,VWS V14.01,2013-11-15 23:47:00,
2013-11-15 18:52:00,68.9,64.2,30.02,NE,49,0.0,2.0,85,0.00,,BKN110,0.03,VWS V14.01,2013-11-15 23:52:00,
2013-11-15 18:57:00,69.1,64.4,30.01,NE,48,0.0,2.0,85,0.00,,BKN110,0.03,VWS V14.01,2013-11-15 23:57:00,
2013-11-15 19:00:00,69.1,64.4,30.01,NE,48,0.0,2.0,85,0.00,,FEW080,0.03,VWS V14.01,2013-11-16 00:00:00,
2013-11-15 19:02:00,69.1,64.1,30.01,NE,49,0.0,0.0,84,0.00,,BKN110,0.03,VWS V14.01,2013-11-16 00:02:00,
2013-11-15 19:07:00,69.1,64.1,30.01,NE,49,0.0,0.0,84,0.00,,BKN110,0.03,VWS V14.01,2013-11-16 00:07:00,
2013-11-15 19:12:00,69.1,64.1,30.02,NE,51,0.0,0.0,84,0.00,,BKN110,0.03,VWS V14.01,2013-11-16 00:12:00,
2013-11-15 19:17:00,69.3,64.3,30.02,NE,51,0.0,0.0,84,0.00,,BKN110,0.03,VWS V14.01,2013-11-16 00:17:00,
2013-11-15 19:22:00,69.3,64.3,30.02,NE,51,0.0,0.0,84,0.00,,BKN110,0.03,VWS V14.01,2013-11-16 00:22:00,
2013-11-15 19:27:00,69.3,64.3,30.01,NE,51,0.0,0.0,84,0.00,,BKN110,0.03,VWS V14.01,2013-11-16 00:27:00,
2013-11-15 19:30:00,69.3,64.3,30.01,NE,51,0.0,0.0,84,0.00,,FEW080,0.03,VWS V14.01,2013-11-16 00:30:00,
2013-11-15 19:32:00,69.1,64.1,30.01,NE,44,0.0,3.0,84,0.00,,BKN110,0.03,VWS V14.01,2013-11-16 00:32:00,
2013-11-15 19:37:00,69.1,64.1,30.01,NE,44,0.0,3.0,84,0.00,,BKN110,0.03,VWS V14.01,2013-11-16 00:37:00,
2013-11-15 19:42:00,69.1,64.4,30.01,NE,44,0.0,3.0,85,0.00,,BKN110,0.03,VWS V14.01,2013-11-16 00:42:00,
2013-11-15 19:48:00,69.1,64.1,30.01,NE,51,0.0,3.0,84,0.00,,BKN110,0.03,VWS V14.01,2013-11-16 00:48:00,
2013-11-15 19:53:00,69.1,64.1,30.01,NE,51,0.0,3.0,84,0.00,,BKN110,0.03,VWS V14.01,2013-11-16 00:53:00,
2013-11-15 19:58:00,69.1,64.1,30.01,NE,52,0.0,3.0,84,0.00,,BKN110,0.03,VWS V14.01,2013-11-16 00:58:00,
2013-11-15 20:00:00,69.1,64.1,30.01,NE,52,0.0,3.0,84,0.00,,FEW080,0.03,VWS V14.01,2013-11-16 01:00:00,
2013-11-15 20:03:00,69.1,64.1,30.01,NE,52,0.0,1.0,84,0.00,,BKN110,0.03,VWS V14.01,2013-11-16 01:03:00,
2013-11-15 20:08:00,69.1,64.1,30.01,NE,52,0.0,1.0,84,0.00,,BKN110,0.03,VWS V14.01,2013-11-16 01:08:00,
2013-11-15 20:13:00,69.1,64.1,30.02,NE,56,0.0,1.0,84,0.00,,BKN110,0.03,VWS V14.01,2013-11-16 01:13:00,
2013-11-15 20:18:00,69.3,64.3,30.02,ENE,61,0.0,1.0,84,0.00,,BKN110,0.03,VWS V14.01,2013-11-16 01:18:00,
2013-11-15 20:23:00,69.3,64.3,30.02,ENE,61,0.0,1.0,84,0.00,,BKN110,0.03,VWS V14.01,2013-11-16 01:23:00,
2013-11-15 20:28:00,69.3,64.3,30.02,ENE,58,0.0,1.0,84,0.00,,BKN110,0.03,VWS V14.01,2013-11-16 01:28:00,
2013-11-15 20:30:00,69.3,64.3,30.02,ENE,58,0.0,1.0,84,0.00,,FEW080,0.03,VWS V14.01,2013-11-16 01:30:00,
2013-11-15 20:33:00,69.3,64.3,30.02,ENE,68,3.0,3.0,84,0.00,,BKN110,0.03,VWS V14.01,2013-11-16 01:33:00,
2013-11-15 20:38:00,69.3,63.9,30.02,ENE,58,0.0,3.0,83,0.00,,BKN110,0.03,VWS V14.01,2013-11-16 01:38:00,
2013-11-15 20:43:00,69.4,64.0,30.02,ENE,58,0.0,3.0,83,0.00,,BKN110,0.03,VWS V14.01,2013-11-16 01:43:00,
2013-11-15 20:48:00,69.4,64.0,30.02,ENE,59,0.0,3.0,83,0.00,,BKN110,0.03,VWS V14.01,2013-11-16 01:48:00,
2013-11-15 20:53:00,69.4,64.0,30.02,ENE,59,0.0,3.0,83,0.00,,BKN110,0.03,VWS V14.01,2013-11-16 01:53:00,
2013-11-15 20:58:00,69.4,64.0,30.02,ENE,62,0.0,3.0,83,0.00,,BKN110,0.03,VWS V14.01,2013-11-16 01:58:00,
2013-11-15 21:00:00,69.4,64.0,30.02,ENE,62,0.0,3.0,83,0.00,,FEW080,0.03,VWS V14.01,2013-11-16 02:00:00,
2013-11-15 21:03:00,69.6,63.9,30.02,ENE,65,0.0,1.0,82,0.00,,BKN110,0.03,VWS V14.01,2013-11-16 02:03:00,
2013-11-15 21:08:00,69.8,64.1,30.02,ENE,68,0.0,1.0,82,0.00,,BKN110,0.03,VWS V14.01,2013-11-16 02:08:00,
2013-11-15 21:13:00,69.8,64.1,30.02,ENE,73,2.0,2.0,82,0.00,,BKN110,0.03,VWS V14.01,2013-11-16 02:13:00,
2013-11-15 21:18:00,69.8,64.1,30.02,East,79,0.0,3.0,82,0.00,,BKN110,0.03,VWS V14.01,2013-11-16 02:18:00,
2013-11-15 21:23:00,69.8,64.4,30.02,ESE,113,0.0,3.0,83,0.00,,BKN110,0.03,VWS V14.01,2013-11-16 02:23:00,
2013-11-15 21:28:00,69.6,64.2,30.03,East,97,0.0,3.0,83,0.00,,BKN110,0.03,VWS V14.01,2013-11-16 02:28:00,
2013-11-15 21:30:00,69.6,64.2,30.03,East,97,0.0,3.0,83,0.00,,FEW080,0.03,VWS V14.01,2013-11-16 02:30:00,
2013-11-15 21:33:00,69.6,64.2,30.03,SE,134,0.0,3.0,83,0.00,,BKN110,0.03,VWS V14.01,2013-11-16 02:33:00,
2013-11-15 21:38:00,69.6,64.6,30.03,SE,130,0.0,3.0,84,0.00,,BKN110,0.03,VWS V14.01,2013-11-16 02:38:00,
2013-11-15 21:43:00,69.6,64.6,30.03,SE,124,0.0,3.0,84,0.00,,BKN110,0.03,VWS V14.01,2013-11-16 02:43:00,
2013-11-15 21:48:00,69.4,64.4,30.03,SE,126,0.0,3.0,84,0.00,,BKN110,0.03,VWS V14.01,2013-11-16 02:48:00,
2013-11-15 21:53:00,69.4,64.7,30.03,SE,126,0.0,3.0,85,0.00,,BKN110,0.03,VWS V14.01,2013-11-16 02:53:00,
2013-11-15 21:58:00,69.3,64.6,30.04,SE,126,0.0,3.0,85,0.00,,BKN110,0.03,VWS V14.01,2013-11-16 02:58:00,
2013-11-15 22:00:00,69.3,64.6,30.04,SE,126,0.0,3.0,85,0.00,,FEW080,0.03,VWS V14.01,2013-11-16 03:00:00,
2013-11-15 22:03:00,69.3,64.6,30.04,SE,126,0.0,0.0,85,0.01,,BKN110,0.04,VWS V14.01,2013-11-16 03:03:00,
2013-11-15 22:08:00,69.1,64.7,30.04,SE,126,0.0,0.0,86,0.01,,BKN110,0.04,VWS V14.01,2013-11-16 03:08:00,
2013-11-15 22:13:00,69.1,65.1,30.04,SE,126,0.0,0.0,87,0.01,,BKN110,0.04,VWS V14.01,2013-11-16 03:13:00,
2013-11-15 22:18:00,68.9,64.9,30.04,SE,126,0.0,0.0,87,0.01,,BKN110,0.04,VWS V14.01,2013-11-16 03:18:00,
2013-11-15 22:23:00,68.8,65.1,30.04,SE,126,0.0,0.0,88,0.01,,BKN110,0.04,VWS V14.01,2013-11-16 03:23:00,
2013-11-15 22:28:00,68.6,64.9,30.03,SE,126,0.0,0.0,88,0.01,,BKN110,0.04,VWS V14.01,2013-11-16 03:28:00,
2013-11-15 22:30:00,68.6,64.9,30.03,SE,126,0.0,0.0,88,0.01,,FEW080,0.04,VWS V14.01,2013-11-16 03:30:00,
2013-11-15 22:33:00,68.4,64.7,30.03,SE,126,0.0,0.0,88,0.01,,BKN110,0.04,VWS V14.01,2013-11-16 03:33:00,
2013-11-15 22:38:00,68.3,64.9,30.03,SE,126,0.0,0.0,89,0.01,,BKN110,0.04,VWS V14.01,2013-11-16 03:38:00,
2013-11-15 22:43:00,68.3,64.9,30.03,SE,124,0.0,0.0,89,0.02,,BKN110,0.05,VWS V14.01,2013-11-16 03:43:00,
2013-11-15 22:48:00,68.3,64.9,30.03,SE,124,0.0,0.0,89,0.02,,BKN110,0.05,VWS V14.01,2013-11-16 03:48:00,
2013-11-15 22:53:00,68.1,64.7,30.03,SE,124,0.0,0.0,89,0.02,,BKN110,0.05,VWS V14.01,2013-11-16 03:53:00,
2013-11-15 22:58:00,68.1,64.7,30.02,SE,124,0.0,0.0,89,0.02,,BKN110,0.05,VWS V14.01,2013-11-16 03:58:00,
2013-11-15 23:00:00,68.1,64.7,30.02,SE,124,0.0,0.0,89,0.02,,FEW080,0.05,VWS V14.01,2013-11-16 04:00:00,
2013-11-15 23:03:00,67.9,64.9,30.02,SE,124,0.0,0.0,90,0.02,,BKN110,0.05,VWS V14.01,2013-11-16 04:03:00,
2013-11-15 23:09:00,67.9,64.9,30.02,East,100,0.0,3.0,90,0.02,,BKN110,0.05,VWS V14.01,2013-11-16 04:09:00,
2013-11-15 23:14:00,67.9,64.9,30.02,ESE,112,2.0,3.0,90,0.02,,BKN110,0.05,VWS V14.01,2013-11-16 04:14:00,
2013-11-15 23:19:00,67.9,64.9,30.02,ESE,121,0.0,5.0,90,0.02,,BKN110,0.05,VWS V14.01,2013-11-16 04:19:00,
2013-11-15 23:24:00,67.9,64.5,30.02,East,79,0.0,5.0,89,0.02,,BKN110,0.05,VWS V14.01,2013-11-16 04:24:00,
2013-11-15 23:29:00,68.1,64.7,30.02,East,96,0.0,0.0,89,0.01,,BKN110,0.05,VWS V14.01,2013-11-16 04:29:00,
2013-11-15 23:30:00,68.1,64.7,30.02,East,93,0.0,5.0,89,0.02,,FEW080,0.05,VWS V14.01,2013-11-16 04:30:00,
2013-11-15 23:34:00,68.1,64.7,30.02,ESE,102,0.0,1.0,89,0.01,,BKN110,0.05,VWS V14.01,2013-11-16 04:34:00,
2013-11-15 23:39:00,68.1,64.7,30.02,ESE,102,0.0,1.0,89,0.01,,BKN110,0.05,VWS V14.01,2013-11-16 04:39:00,
2013-11-15 23:44:00,67.9,64.5,30.02,ESE,102,0.0,1.0,89,0.01,,BKN110,0.05,VWS V14.01,2013-11-16 04:44:00,
2013-11-15 23:49:00,67.9,64.5,30.02,ESE,104,0.0,1.0,89,0.01,,BKN110,0.05,VWS V14.01,2013-11-16 04:49:00,
2013-11-15 23:54:00,67.9,64.5,30.02,ESE,104,0.0,1.0,89,0.01,,BKN110,0.05,VWS V14.01,2013-11-16 04:54:00,
2013-11-15 23:59:00,67.8,64.8,30.03,ESE,104,0.0,0.0,90,0.01,,BKN110,0.00,VWS V14.01,2013-11-16 04:59:00,